Friday, January 19, 2018, 10:34 PM EST
Back to Local

K40B, Clayton Lake

Location: Ashland, ME, United States Lat: 46.617
Local Time: 10:34 PM EST ( 3:34 GMT) Lon: -69.533
Time Zone: US/Eastern Elev: 1030 ft

Show me the last for .
Show Decoded

2018-01-19 22:16 METAR K40B 200316Z AUTO 19007KT M04/M06 A2965 RMK AO1 SLP067 T10381057 58022 =
2018-01-19 21:16 METAR K40B 200216Z AUTO VRB06KT M04/M06 A2969 RMK AO1 SLP081 T10391056 58007 =
2018-01-19 20:16 METAR K40B 200116Z AUTO 20009KT M04/M06 A2970 RMK AO1 SLP084 T10411059 58014 =
2018-01-19 19:16 METAR K40B 200016Z AUTO VRB05KT M04/M06 A2972 RMK AO1 SLP091 T10431063 11043
                 21047 55008 =
2018-01-19 18:16 METAR K40B 192316Z AUTO VRB04KT M04/M07 A2972 RMK AO1 SLP091 T10441066 58013 =
2018-01-19 17:16 METAR K40B 192216Z AUTO VRB05KT M05/M07 A2974 RMK AO1 SLP099 T10451068 57004 =
2018-01-19 16:16 METAR K40B 192116Z AUTO VRB06KT M05/M07 A2974 RMK AO1 SLP101 T10461068 57007 =
2018-01-19 15:16 METAR K40B 192016Z AUTO 20007KT M05/M07 A2976 RMK AO1 SLP106 T10461068 55004 =
2018-01-19 14:16 METAR K40B 191916Z AUTO VRB04KT M05/M07 A2975 RMK AO1 SLP106 T10461069 57011 =
2018-01-19 13:16 METAR K40B 191816Z AUTO VRB04KT M05/M07 A2976 RMK AO1 SLP110 T10461073 11045
                 21089 57012 =
2018-01-19 11:16 METAR K40B 191616Z AUTO VRB04G16KT M05/M08 A2978 RMK AO1 SLP120 T10481076 58006
                 =
2018-01-19 10:16 METAR K40B 191516Z AUTO VRB04KT M05/M07 A2980 RMK AO1 SLP127 T10511073 54001 =
2018-01-19 08:16 METAR K40B 191316Z AUTO 00000KT M08/M10 A2980 RMK AO1 SLP129 T10821095 53005 =
2018-01-19 07:16 METAR K40B 191216Z AUTO 00000KT M09/M10 A2980 RMK AO1 SLP127 T10881101 11088
                 21129 52005 70000 =
2018-01-19 06:16 METAR K40B 191116Z AUTO 00000KT M09/M11 A2979 RMK AO1 SLP123 T10941107 54001 =
2018-01-19 05:16 METAR K40B 191016Z AUTO 00000KT M10/M11 A2979 RMK AO1 SLP124 T10951108 54001 =
2018-01-19 04:16 METAR K40B 190916Z AUTO 00000KT M10/M12 A2978 RMK AO1 SLP121 T11041117 58004 =
2018-01-19 03:16 METAR K40B 190816Z AUTO 00000KT M11/M12 A2978 RMK AO1 SLP121 T11081122 57005 =
2018-01-19 02:16 METAR K40B 190716Z AUTO 00000KT M12/M13 A2979 RMK AO1 SLP122 T11171132 57004 =
2018-01-19 01:16 METAR K40B 190616Z AUTO 00000KT M13/M15 A2979 RMK AO1 SLP122 T11291145 11086
                 21149 57005 P0000 60000 =
2018-01-19 00:16 METAR K40B 190516Z AUTO 00000KT M14/M15 A2980 RMK AO1 SLP125 T11351152 410551149
                 50003 =
2018-01-18 23:16 METAR K40B 190416Z AUTO 00000KT M14/M16 A2980 RMK AO1 SLP124 T11411156 50007 =

Support USWX by starting your Amazon purchase here.